sensor_id;sensor_type;location;lat;lon;timestamp;P1;durP1;ratioP1;P2;durP2;ratioP2
37645;SDS011;23489;49.600;6.138;2023-12-14T02:11:17;10.73;;;6.50;;
37645;SDS011;23489;49.600;6.138;2023-12-14T02:13:43;10.65;;;6.75;;
37645;SDS011;23489;49.600;6.138;2023-12-14T02:16:08;11.52;;;7.05;;
37645;SDS011;23489;49.600;6.138;2023-12-14T02:18:34;9.55;;;6.78;;
37645;SDS011;23489;49.600;6.138;2023-12-14T02:21:00;12.68;;;7.38;;
37645;SDS011;23489;49.600;6.138;2023-12-14T02:23:25;10.88;;;6.93;;
37645;SDS011;23489;49.600;6.138;2023-12-14T02:25:51;11.32;;;6.82;;
37645;SDS011;23489;49.600;6.138;2023-12-14T02:28:16;9.18;;;6.15;;
37645;SDS011;23489;49.600;6.138;2023-12-14T02:30:42;11.82;;;6.88;;
37645;SDS011;23489;49.600;6.138;2023-12-14T02:33:09;9.23;;;6.22;;
37645;SDS011;23489;49.600;6.138;2023-12-14T02:35:34;11.57;;;7.05;;
37645;SDS011;23489;49.600;6.138;2023-12-14T02:38:00;10.13;;;6.20;;
37645;SDS011;23489;49.600;6.138;2023-12-14T02:40:26;9.48;;;6.38;;
37645;SDS011;23489;49.600;6.138;2023-12-14T02:42:51;12.13;;;7.75;;
37645;SDS011;23489;49.600;6.138;2023-12-14T02:45:17;9.75;;;6.55;;
37645;SDS011;23489;49.600;6.138;2023-12-14T02:47:43;12.57;;;7.47;;
37645;SDS011;23489;49.600;6.138;2023-12-14T02:50:08;8.98;;;6.43;;
37645;SDS011;23489;49.600;6.138;2023-12-14T02:52:34;11.32;;;7.07;;
37645;SDS011;23489;49.600;6.138;2023-12-14T02:55:00;11.18;;;7.43;;
37645;SDS011;23489;49.600;6.138;2023-12-14T02:57:26;13.18;;;6.90;;
37645;SDS011;23489;49.600;6.138;2023-12-14T02:59:51;11.43;;;6.72;;
37645;SDS011;23489;49.600;6.138;2023-12-14T03:02:17;12.95;;;6.53;;
37645;SDS011;23489;49.600;6.138;2023-12-14T03:04:43;11.60;;;6.97;;
37645;SDS011;23489;49.600;6.138;2023-12-14T03:07:08;11.35;;;7.05;;
37645;SDS011;23489;49.600;6.138;2023-12-14T03:09:34;13.30;;;7.10;;
37645;SDS011;23489;49.600;6.138;2023-12-14T03:12:00;9.80;;;6.68;;
37645;SDS011;23489;49.600;6.138;2023-12-14T03:14:31;13.30;;;7.43;;
37645;SDS011;23489;49.600;6.138;2023-12-14T03:16:57;11.52;;;7.28;;
37645;SDS011;23489;49.600;6.138;2023-12-14T03:19:22;12.30;;;6.88;;
37645;SDS011;23489;49.600;6.138;2023-12-14T03:21:48;11.60;;;7.00;;
37645;SDS011;23489;49.600;6.138;2023-12-14T03:24:14;12.10;;;7.18;;
37645;SDS011;23489;49.600;6.138;2023-12-14T03:26:39;10.35;;;7.60;;
37645;SDS011;23489;49.600;6.138;2023-12-14T03:29:05;15.20;;;7.60;;
37645;SDS011;23489;49.600;6.138;2023-12-14T03:31:31;11.38;;;6.80;;
37645;SDS011;23489;49.600;6.138;2023-12-14T03:33:56;10.88;;;7.20;;
37645;SDS011;23489;49.600;6.138;2023-12-14T03:36:22;12.80;;;7.30;;
37645;SDS011;23489;49.600;6.138;2023-12-14T03:38:51;10.75;;;7.18;;
37645;SDS011;23489;49.600;6.138;2023-12-14T05:01:28;9.75;;;4.68;;
37645;SDS011;23489;49.600;6.138;2023-12-14T05:03:53;9.85;;;5.07;;
37645;SDS011;23489;49.600;6.138;2023-12-14T05:06:20;7.25;;;4.53;;
37645;SDS011;23489;49.600;6.138;2023-12-14T05:08:46;10.18;;;6.97;;
37645;SDS011;23489;49.600;6.138;2023-12-14T05:11:12;9.98;;;7.15;;
37645;SDS011;23489;49.600;6.138;2023-12-14T05:13:38;10.50;;;6.90;;
37645;SDS011;23489;49.600;6.138;2023-12-14T05:16:04;9.02;;;6.43;;
37645;SDS011;23489;49.600;6.138;2023-12-14T05:18:30;8.80;;;6.45;;
37645;SDS011;23489;49.600;6.138;2023-12-14T05:20:56;9.63;;;6.32;;
37645;SDS011;23489;49.600;6.138;2023-12-14T05:23:21;9.10;;;6.50;;
37645;SDS011;23489;49.600;6.138;2023-12-14T05:25:48;9.75;;;6.75;;
37645;SDS011;23489;49.600;6.138;2023-12-14T05:28:14;9.93;;;5.72;;
37645;SDS011;23489;49.600;6.138;2023-12-14T05:30:40;10.63;;;5.63;;
37645;SDS011;23489;49.600;6.138;2023-12-14T05:33:06;8.15;;;5.30;;
37645;SDS011;23489;49.600;6.138;2023-12-14T05:35:32;10.75;;;6.28;;
37645;SDS011;23489;49.600;6.138;2023-12-14T05:45:14;7.85;;;4.40;;
37645;SDS011;23489;49.600;6.138;2023-12-14T05:47:40;10.23;;;6.40;;
37645;SDS011;23489;49.600;6.138;2023-12-14T05:50:06;12.00;;;5.93;;
37645;SDS011;23489;49.600;6.138;2023-12-14T05:52:35;8.85;;;5.47;;
37645;SDS011;23489;49.600;6.138;2023-12-14T05:55:01;8.57;;;5.40;;
37645;SDS011;23489;49.600;6.138;2023-12-14T05:57:27;13.05;;;6.80;;
37645;SDS011;23489;49.600;6.138;2023-12-14T05:59:53;10.27;;;6.00;;
37645;SDS011;23489;49.600;6.138;2023-12-14T06:02:18;13.55;;;6.15;;
37645;SDS011;23489;49.600;6.138;2023-12-14T06:04:44;9.57;;;5.68;;
37645;SDS011;23489;49.600;6.138;2023-12-14T06:07:09;11.10;;;6.25;;
37645;SDS011;23489;49.600;6.138;2023-12-14T06:09:35;9.93;;;6.38;;
37645;SDS011;23489;49.600;6.138;2023-12-14T06:12:01;11.52;;;7.00;;
37645;SDS011;23489;49.600;6.138;2023-12-14T06:14:28;13.38;;;6.57;;
37645;SDS011;23489;49.600;6.138;2023-12-14T06:16:54;12.45;;;6.85;;
37645;SDS011;23489;49.600;6.138;2023-12-14T06:19:20;12.18;;;6.40;;
37645;SDS011;23489;49.600;6.138;2023-12-14T06:21:46;12.27;;;6.82;;
37645;SDS011;23489;49.600;6.138;2023-12-14T06:46:11;13.23;;;7.00;;
37645;SDS011;23489;49.600;6.138;2023-12-14T06:48:37;12.95;;;6.90;;
37645;SDS011;23489;49.600;6.138;2023-12-14T06:51:03;14.13;;;7.25;;
37645;SDS011;23489;49.600;6.138;2023-12-14T06:53:29;13.02;;;7.35;;
37645;SDS011;23489;49.600;6.138;2023-12-14T06:55:55;15.52;;;8.60;;
37645;SDS011;23489;49.600;6.138;2023-12-14T06:58:20;13.10;;;8.07;;
37645;SDS011;23489;49.600;6.138;2023-12-14T07:00:46;13.23;;;7.75;;
37645;SDS011;23489;49.600;6.138;2023-12-14T07:03:12;14.52;;;8.07;;
37645;SDS011;23489;49.600;6.138;2023-12-14T07:05:38;14.75;;;7.68;;
37645;SDS011;23489;49.600;6.138;2023-12-14T07:08:04;15.18;;;8.40;;
37645;SDS011;23489;49.600;6.138;2023-12-14T07:10:30;14.25;;;7.95;;
37645;SDS011;23489;49.600;6.138;2023-12-14T07:12:56;14.88;;;7.65;;
37645;SDS011;23489;49.600;6.138;2023-12-14T07:15:21;13.85;;;8.20;;
37645;SDS011;23489;49.600;6.138;2023-12-14T07:17:47;14.27;;;7.60;;
37645;SDS011;23489;49.600;6.138;2023-12-14T07:20:13;23.95;;;13.68;;
37645;SDS011;23489;49.600;6.138;2023-12-14T07:22:39;17.35;;;10.80;;
37645;SDS011;23489;49.600;6.138;2023-12-14T07:25:04;19.65;;;9.50;;
37645;SDS011;23489;49.600;6.138;2023-12-14T07:27:30;14.45;;;8.90;;
37645;SDS011;23489;49.600;6.138;2023-12-14T07:29:55;16.40;;;8.20;;
37645;SDS011;23489;49.600;6.138;2023-12-14T07:32:21;51.33;;;23.80;;
37645;SDS011;23489;49.600;6.138;2023-12-14T07:34:47;16.38;;;8.65;;
37645;SDS011;23489;49.600;6.138;2023-12-14T07:37:13;17.13;;;8.45;;
37645;SDS011;23489;49.600;6.138;2023-12-14T07:39:38;15.38;;;8.27;;
37645;SDS011;23489;49.600;6.138;2023-12-14T07:42:04;15.82;;;8.60;;
37645;SDS011;23489;49.600;6.138;2023-12-14T07:44:30;19.75;;;10.52;;
37645;SDS011;23489;49.600;6.138;2023-12-14T07:46:57;17.42;;;9.13;;
37645;SDS011;23489;49.600;6.138;2023-12-14T07:49:24;12.60;;;6.28;;
37645;SDS011;23489;49.600;6.138;2023-12-14T07:51:50;12.82;;;7.63;;
37645;SDS011;23489;49.600;6.138;2023-12-14T11:10:04;6.28;;;3.22;;
37645;SDS011;23489;49.600;6.138;2023-12-14T11:12:32;5.80;;;3.40;;
37645;SDS011;23489;49.600;6.138;2023-12-14T11:14:59;6.15;;;3.60;;
37645;SDS011;23489;49.600;6.138;2023-12-14T11:27:28;8.52;;;3.85;;
37645;SDS011;23489;49.600;6.138;2023-12-14T11:39:38;9.15;;;5.35;;
37645;SDS011;23489;49.600;6.138;2023-12-14T11:42:04;9.18;;;5.35;;
37645;SDS011;23489;49.600;6.138;2023-12-14T11:44:33;8.68;;;4.63;;
37645;SDS011;23489;49.600;6.138;2023-12-14T11:47:00;8.38;;;4.95;;
37645;SDS011;23489;49.600;6.138;2023-12-14T11:56:48;6.95;;;4.07;;
37645;SDS011;23489;49.600;6.138;2023-12-14T11:59:15;10.68;;;4.78;;
37645;SDS011;23489;49.600;6.138;2023-12-14T12:01:57;13.23;;;6.03;;
37645;SDS011;23489;49.600;6.138;2023-12-14T12:04:25;9.95;;;5.30;;
37645;SDS011;23489;49.600;6.138;2023-12-14T12:06:58;10.90;;;5.25;;
37645;SDS011;23489;49.600;6.138;2023-12-14T12:09:36;9.68;;;5.35;;
37645;SDS011;23489;49.600;6.138;2023-12-14T12:12:09;10.48;;;5.18;;
37645;SDS011;23489;49.600;6.138;2023-12-14T12:14:36;13.63;;;5.10;;
37645;SDS011;23489;49.600;6.138;2023-12-14T12:17:02;16.02;;;5.75;;
37645;SDS011;23489;49.600;6.138;2023-12-14T12:19:32;9.05;;;5.32;;
37645;SDS011;23489;49.600;6.138;2023-12-14T12:22:00;10.05;;;5.18;;
37645;SDS011;23489;49.600;6.138;2023-12-14T12:24:27;7.43;;;4.25;;
37645;SDS011;23489;49.600;6.138;2023-12-14T12:26:53;9.13;;;5.05;;
37645;SDS011;23489;49.600;6.138;2023-12-14T12:29:20;9.18;;;5.45;;
37645;SDS011;23489;49.600;6.138;2023-12-14T12:31:46;7.53;;;4.65;;
37645;SDS011;23489;49.600;6.138;2023-12-14T12:34:12;10.10;;;4.55;;
37645;SDS011;23489;49.600;6.138;2023-12-14T12:39:04;6.95;;;4.57;;
37645;SDS011;23489;49.600;6.138;2023-12-14T12:41:33;8.20;;;5.15;;
37645;SDS011;23489;49.600;6.138;2023-12-14T12:43:59;8.18;;;4.38;;
37645;SDS011;23489;49.600;6.138;2023-12-14T13:03:35;5.50;;;3.05;;
37645;SDS011;23489;49.600;6.138;2023-12-14T13:06:01;4.60;;;2.88;;
37645;SDS011;23489;49.600;6.138;2023-12-14T13:08:26;5.43;;;3.17;;
37645;SDS011;23489;49.600;6.138;2023-12-14T13:10:52;7.20;;;3.80;;
37645;SDS011;23489;49.600;6.138;2023-12-14T13:13:18;5.50;;;3.28;;
37645;SDS011;23489;49.600;6.138;2023-12-14T13:15:44;8.52;;;4.32;;
37645;SDS011;23489;49.600;6.138;2023-12-14T13:18:09;7.63;;;3.80;;
37645;SDS011;23489;49.600;6.138;2023-12-14T13:20:35;5.47;;;3.70;;
37645;SDS011;23489;49.600;6.138;2023-12-14T13:37:37;7.05;;;4.63;;
37645;SDS011;23489;49.600;6.138;2023-12-14T13:40:03;7.47;;;3.80;;
37645;SDS011;23489;49.600;6.138;2023-12-14T13:54:36;7.03;;;4.57;;
37645;SDS011;23489;49.600;6.138;2023-12-14T13:57:02;8.02;;;3.85;;
37645;SDS011;23489;49.600;6.138;2023-12-14T13:59:28;4.43;;;3.45;;
37645;SDS011;23489;49.600;6.138;2023-12-14T14:01:54;5.57;;;3.85;;
37645;SDS011;23489;49.600;6.138;2023-12-14T14:04:19;6.15;;;3.95;;
37645;SDS011;23489;49.600;6.138;2023-12-14T14:06:45;7.60;;;3.88;;
37645;SDS011;23489;49.600;6.138;2023-12-14T14:09:11;5.30;;;3.70;;
37645;SDS011;23489;49.600;6.138;2023-12-14T14:11:37;7.30;;;4.13;;
37645;SDS011;23489;49.600;6.138;2023-12-14T14:14:06;6.90;;;4.13;;
37645;SDS011;23489;49.600;6.138;2023-12-14T14:16:32;7.80;;;4.20;;
37645;SDS011;23489;49.600;6.138;2023-12-14T14:18:57;6.60;;;4.60;;
37645;SDS011;23489;49.600;6.138;2023-12-14T14:21:23;7.18;;;4.70;;
37645;SDS011;23489;49.600;6.138;2023-12-14T14:23:49;6.60;;;4.20;;
37645;SDS011;23489;49.600;6.138;2023-12-14T14:26:15;8.27;;;3.85;;
37645;SDS011;23489;49.600;6.138;2023-12-14T14:40:48;8.40;;;4.60;;
37645;SDS011;23489;49.600;6.138;2023-12-14T14:43:14;7.40;;;4.03;;
37645;SDS011;23489;49.600;6.138;2023-12-14T14:45:40;6.70;;;4.32;;
37645;SDS011;23489;49.600;6.138;2023-12-14T14:48:06;4.82;;;3.28;;
37645;SDS011;23489;49.600;6.138;2023-12-14T14:50:33;8.00;;;3.58;;
37645;SDS011;23489;49.600;6.138;2023-12-14T14:53:02;8.88;;;3.70;;
37645;SDS011;23489;49.600;6.138;2023-12-14T14:55:28;6.97;;;3.30;;
37645;SDS011;23489;49.600;6.138;2023-12-14T14:57:54;5.93;;;3.33;;
37645;SDS011;23489;49.600;6.138;2023-12-14T15:02:46;5.65;;;4.28;;
37645;SDS011;23489;49.600;6.138;2023-12-14T15:05:11;5.43;;;3.80;;
37645;SDS011;23489;49.600;6.138;2023-12-14T15:07:37;6.28;;;3.92;;
37645;SDS011;23489;49.600;6.138;2023-12-14T15:10:03;7.28;;;3.55;;
37645;SDS011;23489;49.600;6.138;2023-12-14T15:12:29;7.65;;;3.72;;
37645;SDS011;23489;49.600;6.138;2023-12-14T15:14:55;5.70;;;3.60;;
37645;SDS011;23489;49.600;6.138;2023-12-14T15:17:24;8.43;;;3.70;;
37645;SDS011;23489;49.600;6.138;2023-12-14T15:19:49;8.88;;;3.83;;
37645;SDS011;23489;49.600;6.138;2023-12-14T15:22:16;4.97;;;3.50;;
37645;SDS011;23489;49.600;6.138;2023-12-14T15:24:41;5.47;;;3.63;;
37645;SDS011;23489;49.600;6.138;2023-12-14T15:27:08;5.68;;;3.63;;
37645;SDS011;23489;49.600;6.138;2023-12-14T15:51:25;9.30;;;4.32;;
37645;SDS011;23489;49.600;6.138;2023-12-14T15:53:51;6.30;;;3.97;;
37645;SDS011;23489;49.600;6.138;2023-12-14T15:56:18;8.65;;;4.57;;
37645;SDS011;23489;49.600;6.138;2023-12-14T15:58:47;7.75;;;4.40;;
37645;SDS011;23489;49.600;6.138;2023-12-14T16:01:13;8.57;;;4.72;;
37645;SDS011;23489;49.600;6.138;2023-12-14T16:03:41;12.45;;;5.00;;
37645;SDS011;23489;49.600;6.138;2023-12-14T16:06:07;6.80;;;4.60;;
37645;SDS011;23489;49.600;6.138;2023-12-14T16:08:33;9.00;;;5.30;;
37645;SDS011;23489;49.600;6.138;2023-12-14T16:10:58;7.35;;;5.28;;
37645;SDS011;23489;49.600;6.138;2023-12-14T16:13:24;6.57;;;4.57;;
37645;SDS011;23489;49.600;6.138;2023-12-14T16:15:50;5.90;;;4.35;;
37645;SDS011;23489;49.600;6.138;2023-12-14T16:18:15;6.53;;;4.47;;
37645;SDS011;23489;49.600;6.138;2023-12-14T16:20:41;8.70;;;5.05;;
37645;SDS011;23489;49.600;6.138;2023-12-14T16:23:06;7.35;;;4.72;;
37645;SDS011;23489;49.600;6.138;2023-12-14T16:25:32;6.07;;;4.88;;
37645;SDS011;23489;49.600;6.138;2023-12-14T16:27:58;7.78;;;4.70;;
37645;SDS011;23489;49.600;6.138;2023-12-14T16:30:24;8.85;;;4.93;;
37645;SDS011;23489;49.600;6.138;2023-12-14T16:32:49;9.25;;;5.13;;
37645;SDS011;23489;49.600;6.138;2023-12-14T16:35:15;7.45;;;4.97;;
37645;SDS011;23489;49.600;6.138;2023-12-14T16:37:41;7.68;;;5.28;;
37645;SDS011;23489;49.600;6.138;2023-12-14T16:40:07;8.50;;;5.18;;
37645;SDS011;23489;49.600;6.138;2023-12-14T16:42:33;7.75;;;5.13;;
37645;SDS011;23489;49.600;6.138;2023-12-14T16:44:58;8.30;;;4.80;;
37645;SDS011;23489;49.600;6.138;2023-12-14T16:47:24;7.78;;;4.57;;
37645;SDS011;23489;49.600;6.138;2023-12-14T16:49:49;9.35;;;5.18;;
37645;SDS011;23489;49.600;6.138;2023-12-14T16:52:15;7.88;;;5.18;;
37645;SDS011;23489;49.600;6.138;2023-12-14T16:54:43;10.90;;;5.60;;
37645;SDS011;23489;49.600;6.138;2023-12-14T16:57:10;11.82;;;6.40;;
37645;SDS011;23489;49.600;6.138;2023-12-14T16:59:35;8.20;;;5.80;;
37645;SDS011;23489;49.600;6.138;2023-12-14T17:02:03;10.02;;;6.10;;
37645;SDS011;23489;49.600;6.138;2023-12-14T17:04:28;10.25;;;6.25;;
37645;SDS011;23489;49.600;6.138;2023-12-14T17:06:54;8.57;;;5.85;;
37645;SDS011;23489;49.600;6.138;2023-12-14T17:09:20;8.73;;;5.50;;
37645;SDS011;23489;49.600;6.138;2023-12-14T17:11:48;12.85;;;6.18;;
37645;SDS011;23489;49.600;6.138;2023-12-14T17:14:14;8.55;;;5.22;;
37645;SDS011;23489;49.600;6.138;2023-12-14T17:16:40;9.50;;;5.50;;
37645;SDS011;23489;49.600;6.138;2023-12-14T17:19:05;9.82;;;6.13;;
37645;SDS011;23489;49.600;6.138;2023-12-14T17:21:31;8.70;;;6.00;;
37645;SDS011;23489;49.600;6.138;2023-12-14T17:23:57;9.02;;;5.45;;
37645;SDS011;23489;49.600;6.138;2023-12-14T17:26:23;8.52;;;5.57;;
37645;SDS011;23489;49.600;6.138;2023-12-14T17:28:53;8.65;;;5.75;;
37645;SDS011;23489;49.600;6.138;2023-12-14T17:31:20;9.07;;;5.57;;
37645;SDS011;23489;49.600;6.138;2023-12-14T17:33:47;10.25;;;5.57;;
37645;SDS011;23489;49.600;6.138;2023-12-14T17:36:13;12.95;;;6.45;;
37645;SDS011;23489;49.600;6.138;2023-12-14T17:38:38;8.15;;;5.53;;
37645;SDS011;23489;49.600;6.138;2023-12-14T17:41:11;10.18;;;5.22;;
37645;SDS011;23489;49.600;6.138;2023-12-14T17:43:40;7.45;;;5.35;;
37645;SDS011;23489;49.600;6.138;2023-12-14T17:46:06;9.77;;;5.97;;
37645;SDS011;23489;49.600;6.138;2023-12-14T17:48:32;10.63;;;6.45;;
37645;SDS011;23489;49.600;6.138;2023-12-14T17:51:01;9.02;;;6.57;;
37645;SDS011;23489;49.600;6.138;2023-12-14T17:53:27;9.88;;;5.90;;
37645;SDS011;23489;49.600;6.138;2023-12-14T17:55:52;10.43;;;6.03;;
37645;SDS011;23489;49.600;6.138;2023-12-14T17:58:18;13.00;;;6.53;;
37645;SDS011;23489;49.600;6.138;2023-12-14T18:00:44;14.02;;;7.50;;
37645;SDS011;23489;49.600;6.138;2023-12-14T18:03:09;9.82;;;6.88;;
37645;SDS011;23489;49.600;6.138;2023-12-14T18:05:35;11.23;;;6.82;;
37645;SDS011;23489;49.600;6.138;2023-12-14T18:08:00;10.93;;;6.97;;
37645;SDS011;23489;49.600;6.138;2023-12-14T18:10:27;14.25;;;7.15;;
37645;SDS011;23489;49.600;6.138;2023-12-14T18:12:52;10.32;;;6.80;;
37645;SDS011;23489;49.600;6.138;2023-12-14T18:15:21;15.30;;;7.07;;
37645;SDS011;23489;49.600;6.138;2023-12-14T18:17:47;12.10;;;6.95;;
37645;SDS011;23489;49.600;6.138;2023-12-14T18:20:13;13.48;;;6.72;;
37645;SDS011;23489;49.600;6.138;2023-12-14T18:22:39;10.00;;;7.10;;
37645;SDS011;23489;49.600;6.138;2023-12-14T18:25:05;8.57;;;6.32;;
37645;SDS011;23489;49.600;6.138;2023-12-14T18:27:31;9.43;;;6.30;;
37645;SDS011;23489;49.600;6.138;2023-12-14T18:29:56;10.63;;;6.60;;
37645;SDS011;23489;49.600;6.138;2023-12-14T18:32:22;11.52;;;6.57;;
37645;SDS011;23489;49.600;6.138;2023-12-14T18:34:48;9.60;;;6.22;;
37645;SDS011;23489;49.600;6.138;2023-12-14T18:46:57;10.75;;;6.05;;
37645;SDS011;23489;49.600;6.138;2023-12-14T18:49:22;10.40;;;6.18;;
37645;SDS011;23489;49.600;6.138;2023-12-14T18:51:48;10.35;;;6.15;;
37645;SDS011;23489;49.600;6.138;2023-12-14T18:54:14;10.30;;;6.82;;
37645;SDS011;23489;49.600;6.138;2023-12-14T19:08:48;10.85;;;5.93;;
37645;SDS011;23489;49.600;6.138;2023-12-14T19:11:18;12.35;;;5.82;;
37645;SDS011;23489;49.600;6.138;2023-12-14T19:13:45;7.40;;;5.35;;
37645;SDS011;23489;49.600;6.138;2023-12-14T19:16:11;9.50;;;6.28;;
37645;SDS011;23489;49.600;6.138;2023-12-14T19:18:37;9.77;;;6.90;;
37645;SDS011;23489;49.600;6.138;2023-12-14T19:21:03;9.18;;;6.50;;
37645;SDS011;23489;49.600;6.138;2023-12-14T19:23:29;9.05;;;5.80;;
37645;SDS011;23489;49.600;6.138;2023-12-14T19:25:55;8.38;;;6.05;;
37645;SDS011;23489;49.600;6.138;2023-12-14T19:28:23;12.93;;;6.30;;
37645;SDS011;23489;49.600;6.138;2023-12-14T19:30:49;8.18;;;5.75;;
37645;SDS011;23489;49.600;6.138;2023-12-14T19:33:15;11.52;;;6.20;;
37645;SDS011;23489;49.600;6.138;2023-12-14T19:35:42;9.02;;;6.05;;
37645;SDS011;23489;49.600;6.138;2023-12-14T19:38:09;9.85;;;5.75;;
37645;SDS011;23489;49.600;6.138;2023-12-14T19:40:34;11.43;;;6.97;;
37645;SDS011;23489;49.600;6.138;2023-12-14T19:43:00;9.05;;;5.72;;
37645;SDS011;23489;49.600;6.138;2023-12-14T19:45:25;8.82;;;6.68;;
37645;SDS011;23489;49.600;6.138;2023-12-14T19:47:51;12.13;;;5.63;;
37645;SDS011;23489;49.600;6.138;2023-12-14T19:52:42;10.77;;;5.97;;
37645;SDS011;23489;49.600;6.138;2023-12-14T19:55:08;8.32;;;6.05;;
37645;SDS011;23489;49.600;6.138;2023-12-14T19:57:36;8.10;;;5.63;;
37645;SDS011;23489;49.600;6.138;2023-12-14T20:00:03;10.20;;;6.00;;
37645;SDS011;23489;49.600;6.138;2023-12-14T20:02:35;8.95;;;5.95;;
37645;SDS011;23489;49.600;6.138;2023-12-14T20:17:09;8.02;;;5.07;;
37645;SDS011;23489;49.600;6.138;2023-12-14T20:19:35;8.68;;;6.30;;
37645;SDS011;23489;49.600;6.138;2023-12-14T20:22:01;9.57;;;6.32;;
37645;SDS011;23489;49.600;6.138;2023-12-14T20:24:27;11.07;;;6.20;;
37645;SDS011;23489;49.600;6.138;2023-12-14T20:26:56;10.63;;;5.57;;
37645;SDS011;23489;49.600;6.138;2023-12-14T20:29:23;12.02;;;6.43;;
37645;SDS011;23489;49.600;6.138;2023-12-14T20:31:49;9.18;;;6.53;;
37645;SDS011;23489;49.600;6.138;2023-12-14T20:34:14;11.35;;;5.82;;
37645;SDS011;23489;49.600;6.138;2023-12-14T20:41:31;10.05;;;6.15;;
37645;SDS011;23489;49.600;6.138;2023-12-14T20:43:57;11.93;;;6.47;;
37645;SDS011;23489;49.600;6.138;2023-12-14T20:46:23;10.82;;;6.78;;
37645;SDS011;23489;49.600;6.138;2023-12-14T20:48:49;11.20;;;6.90;;
37645;SDS011;23489;49.600;6.138;2023-12-14T20:51:15;10.50;;;6.10;;
37645;SDS011;23489;49.600;6.138;2023-12-14T20:53:40;10.07;;;6.43;;
37645;SDS011;23489;49.600;6.138;2023-12-14T20:56:07;10.68;;;6.10;;
37645;SDS011;23489;49.600;6.138;2023-12-14T20:58:33;8.50;;;5.65;;
37645;SDS011;23489;49.600;6.138;2023-12-14T21:00:59;11.43;;;6.55;;
37645;SDS011;23489;49.600;6.138;2023-12-14T21:03:25;10.15;;;6.50;;
37645;SDS011;23489;49.600;6.138;2023-12-14T21:05:51;9.00;;;5.47;;
37645;SDS011;23489;49.600;6.138;2023-12-14T21:08:16;13.65;;;6.47;;
37645;SDS011;23489;49.600;6.138;2023-12-14T21:10:42;9.32;;;6.00;;
37645;SDS011;23489;49.600;6.138;2023-12-14T21:13:08;13.30;;;6.95;;
37645;SDS011;23489;49.600;6.138;2023-12-14T21:18:00;13.77;;;8.35;;
37645;SDS011;23489;49.600;6.138;2023-12-14T21:20:25;11.00;;;6.70;;
37645;SDS011;23489;49.600;6.138;2023-12-14T21:22:53;9.82;;;6.00;;
37645;SDS011;23489;49.600;6.138;2023-12-14T21:25:19;11.10;;;6.53;;
37645;SDS011;23489;49.600;6.138;2023-12-14T21:27:51;11.75;;;6.50;;
37645;SDS011;23489;49.600;6.138;2023-12-14T21:30:20;8.23;;;5.88;;
37645;SDS011;23489;49.600;6.138;2023-12-14T21:32:46;8.68;;;6.18;;
37645;SDS011;23489;49.600;6.138;2023-12-14T21:35:12;13.73;;;6.32;;
37645;SDS011;23489;49.600;6.138;2023-12-14T21:37:39;12.20;;;6.38;;
37645;SDS011;23489;49.600;6.138;2023-12-14T21:40:05;10.00;;;6.07;;
37645;SDS011;23489;49.600;6.138;2023-12-14T21:52:14;9.68;;;5.10;;
37645;SDS011;23489;49.600;6.138;2023-12-14T21:54:40;12.45;;;5.22;;
37645;SDS011;23489;49.600;6.138;2023-12-14T21:57:06;11.63;;;6.38;;
37645;SDS011;23489;49.600;6.138;2023-12-14T21:59:32;10.40;;;5.95;;
37645;SDS011;23489;49.600;6.138;2023-12-14T22:01:58;8.95;;;5.70;;
37645;SDS011;23489;49.600;6.138;2023-12-14T22:04:24;10.13;;;6.07;;
37645;SDS011;23489;49.600;6.138;2023-12-14T22:06:50;9.50;;;6.25;;
37645;SDS011;23489;49.600;6.138;2023-12-14T22:09:16;9.57;;;6.47;;
37645;SDS011;23489;49.600;6.138;2023-12-14T22:11:43;8.40;;;5.90;;
37645;SDS011;23489;49.600;6.138;2023-12-14T22:14:09;12.98;;;6.80;;
37645;SDS011;23489;49.600;6.138;2023-12-14T22:16:34;11.30;;;6.30;;
37645;SDS011;23489;49.600;6.138;2023-12-14T22:19:00;12.85;;;7.57;;
37645;SDS011;23489;49.600;6.138;2023-12-14T22:21:26;12.57;;;6.90;;
37645;SDS011;23489;49.600;6.138;2023-12-14T22:23:52;10.93;;;7.07;;
37645;SDS011;23489;49.600;6.138;2023-12-14T22:33:34;12.50;;;7.25;;
37645;SDS011;23489;49.600;6.138;2023-12-14T22:36:00;12.55;;;8.07;;
37645;SDS011;23489;49.600;6.138;2023-12-14T22:38:25;14.52;;;8.07;;
37645;SDS011;23489;49.600;6.138;2023-12-14T22:40:54;14.25;;;8.10;;
37645;SDS011;23489;49.600;6.138;2023-12-14T22:43:20;14.80;;;8.18;;
37645;SDS011;23489;49.600;6.138;2023-12-14T22:45:46;11.68;;;8.00;;
37645;SDS011;23489;49.600;6.138;2023-12-14T22:48:12;13.40;;;8.75;;
37645;SDS011;23489;49.600;6.138;2023-12-14T22:53:04;16.45;;;8.43;;
37645;SDS011;23489;49.600;6.138;2023-12-14T22:55:29;19.45;;;9.68;;
37645;SDS011;23489;49.600;6.138;2023-12-14T22:57:55;17.73;;;10.07;;
37645;SDS011;23489;49.600;6.138;2023-12-14T23:00:22;19.35;;;10.98;;
37645;SDS011;23489;49.600;6.138;2023-12-14T23:02:52;17.75;;;10.60;;
37645;SDS011;23489;49.600;6.138;2023-12-14T23:05:18;18.00;;;10.82;;
37645;SDS011;23489;49.600;6.138;2023-12-14T23:07:45;21.45;;;11.45;;
37645;SDS011;23489;49.600;6.138;2023-12-14T23:10:10;19.00;;;11.18;;
37645;SDS011;23489;49.600;6.138;2023-12-14T23:12:38;22.60;;;14.68;;
37645;SDS011;23489;49.600;6.138;2023-12-14T23:15:04;23.77;;;15.18;;
37645;SDS011;23489;49.600;6.138;2023-12-14T23:17:31;22.98;;;15.18;;
37645;SDS011;23489;49.600;6.138;2023-12-14T23:19:57;25.97;;;15.40;;
37645;SDS011;23489;49.600;6.138;2023-12-14T23:22:23;21.53;;;14.73;;
37645;SDS011;23489;49.600;6.138;2023-12-14T23:24:49;23.10;;;15.35;;
37645;SDS011;23489;49.600;6.138;2023-12-14T23:27:15;19.70;;;12.50;;
37645;SDS011;23489;49.600;6.138;2023-12-14T23:29:41;19.27;;;12.13;;
37645;SDS011;23489;49.600;6.138;2023-12-14T23:32:07;21.63;;;12.18;;
37645;SDS011;23489;49.600;6.138;2023-12-14T23:34:33;19.27;;;12.48;;
37645;SDS011;23489;49.600;6.138;2023-12-14T23:37:00;22.15;;;13.30;;
37645;SDS011;23489;49.600;6.138;2023-12-14T23:39:26;20.60;;;12.50;;
37645;SDS011;23489;49.600;6.138;2023-12-14T23:41:51;24.38;;;16.15;;
37645;SDS011;23489;49.600;6.138;2023-12-14T23:44:17;23.67;;;15.63;;
37645;SDS011;23489;49.600;6.138;2023-12-14T23:46:43;24.33;;;15.93;;
37645;SDS011;23489;49.600;6.138;2023-12-14T23:49:09;21.60;;;15.30;;
37645;SDS011;23489;49.600;6.138;2023-12-14T23:51:34;24.05;;;16.40;;
37645;SDS011;23489;49.600;6.138;2023-12-14T23:54:00;23.47;;;16.83;;
37645;SDS011;23489;49.600;6.138;2023-12-14T23:56:25;24.65;;;16.98;;
37645;SDS011;23489;49.600;6.138;2023-12-14T23:58:51;24.73;;;16.13;;
